Time;durP1;ratioP1;P1;durP2;ratioP2;P2;SDS_P1;SDS_P2;PMS_P1;PMS_P2;Temp;Humidity;BMP_temperature;BMP_pressure;BME280_temperature;BME280_humidity;BME280_pressure;Samples;Min_cycle;Max_cycle;Signal;HPM_P1;HPM_P2
2021/07/02 00:00:16;;;;;;;34.05;18.40;;;;;;;15.17;97.02;101048.69;5016160;28;20423;-74
2021/07/02 00:02:42;;;;;;;35.20;18.55;;;;;;;15.24;97.14;101057.25;5032751;28;20379;-74
2021/07/02 00:05:08;;;;;;;30.95;17.25;;;;;;;15.22;97.36;101059.94;5020333;28;20037;-74
2021/07/02 00:07:34;;;;;;;25.90;15.88;;;;;;;15.29;97.27;101050.94;5019982;28;20017;-74
2021/07/02 00:09:59;;;;;;;20.88;15.23;;;;;;;15.38;97.00;101042.78;5020423;28;20071;-74
2021/07/02 00:12:24;;;;;;;24.02;15.30;;;;;;;15.35;96.67;101047.25;5018888;28;20044;-74
2021/07/02 00:14:49;;;;;;;30.17;15.77;;;;;;;15.32;96.39;101048.22;5020137;28;20350;-74
2021/07/02 00:17:15;;;;;;;23.60;15.40;;;;;;;15.28;96.27;101046.59;5019543;28;20026;-74
2021/07/02 00:19:40;;;;;;;22.90;14.80;;;;;;;15.31;96.66;101043.88;5020080;28;20029;-74
2021/07/02 00:22:05;;;;;;;25.58;15.20;;;;;;;15.16;96.60;101039.94;5035309;28;20036;-74
2021/07/02 00:24:31;;;;;;;19.38;15.45;;;;;;;15.21;96.71;101040.66;5037367;28;20422;-71
2021/07/02 00:26:56;;;;;;;26.83;15.70;;;;;;;15.25;96.11;101045.84;5019562;28;20024;-72
2021/07/02 00:29:22;;;;;;;24.92;15.65;;;;;;;15.38;95.86;101041.94;5019827;28;20394;-71
2021/07/02 00:31:48;;;;;;;18.55;14.43;;;;;;;15.29;95.24;101040.41;5037344;28;20116;-73
2021/07/02 00:34:14;;;;;;;22.55;14.85;;;;;;;15.30;95.13;101042.16;5020097;28;20060;-73
2021/07/02 00:36:39;;;;;;;22.73;14.73;;;;;;;15.22;95.42;101033.63;5020443;28;20025;-72
2021/07/02 00:39:04;;;;;;;20.23;14.20;;;;;;;15.22;95.67;101036.25;5036799;28;20444;-73
2021/07/02 00:41:30;;;;;;;23.70;14.82;;;;;;;15.20;96.34;101038.06;5019943;28;20116;-73
2021/07/02 00:43:56;;;;;;;20.00;15.00;;;;;;;15.11;96.28;101052.38;5019571;28;20104;-72
2021/07/02 00:46:22;;;;;;;19.60;13.90;;;;;;;15.12;96.03;101043.56;5019322;28;20033;-74
2021/07/02 00:48:48;;;;;;;20.73;13.65;;;;;;;15.18;95.57;101040.75;5036739;28;20028;-74
2021/07/02 00:51:13;;;;;;;21.67;14.18;;;;;;;15.08;95.67;101036.69;5018765;28;20037;-73
2021/07/02 00:53:41;;;;;;;19.65;12.75;;;;;;;15.15;95.18;101035.56;5018966;28;20331;-73
2021/07/02 00:56:08;;;;;;;23.58;14.15;;;;;;;15.13;95.41;101039.16;5018923;28;20028;-73
2021/07/02 00:58:33;;;;;;;16.00;12.23;;;;;;;15.17;95.49;101040.78;5018674;28;20029;-73
2021/07/02 01:00:59;;;;;;;22.42;13.63;;;;;;;15.15;94.59;101042.63;5018565;28;20029;-73
2021/07/02 01:03:24;;;;;;;20.95;12.65;;;;;;;15.15;94.35;101040.84;5002150;28;20128;-73
2021/07/02 01:05:49;;;;;;;19.30;13.30;;;;;;;14.99;94.78;101031.69;5035193;28;20442;-72
2021/07/02 01:08:15;;;;;;;19.33;13.20;;;;;;;14.93;95.00;101040.63;5035390;28;20377;-73
2021/07/02 01:10:42;;;;;;;18.83;13.48;;;;;;;14.92;95.84;101038.03;5018591;28;20032;-73
2021/07/02 01:13:07;;;;;;;20.10;12.45;;;;;;;14.83;95.44;101042.66;5018703;28;20053;-74
2021/07/02 01:15:33;;;;;;;18.63;12.32;;;;;;;14.82;94.61;101042.66;5017897;28;20284;-73
2021/07/02 01:17:58;;;;;;;22.67;12.27;;;;;;;14.78;94.55;101035.78;5002744;28;20377;-73
2021/07/02 01:20:23;;;;;;;22.65;12.55;;;;;;;14.73;94.51;101043.81;5018705;28;20033;-72
2021/07/02 01:22:49;;;;;;;19.90;13.07;;;;;;;14.62;94.84;101049.31;5018374;28;20026;-72
2021/07/02 01:25:14;;;;;;;20.67;12.00;;;;;;;14.60;95.65;101050.25;5018519;28;20105;-72
2021/07/02 01:27:40;;;;;;;19.83;12.50;;;;;;;14.62;95.25;101046.69;5018674;28;20144;-72
2021/07/02 01:30:07;;;;;;;21.58;12.60;;;;;;;14.59;95.00;101049.41;5002075;28;20017;-72
2021/07/02 01:32:32;;;;;;;22.20;12.43;;;;;;;14.60;95.27;101053.78;5001390;28;20052;-72
2021/07/02 01:34:58;;;;;;;21.33;13.45;;;;;;;14.56;95.75;101049.50;5018431;28;20447;-72
2021/07/02 01:37:23;;;;;;;21.00;13.85;;;;;;;14.45;95.35;101055.06;5034456;28;20120;-72
2021/07/02 01:39:48;;;;;;;23.48;14.88;;;;;;;14.36;95.64;101053.50;5018216;28;20032;-72
2021/07/02 01:42:14;;;;;;;22.65;14.30;;;;;;;14.43;95.58;101066.50;5017620;28;20068;-72
2021/07/02 01:44:39;;;;;;;27.90;14.35;;;;;;;14.46;95.45;101061.16;5018018;28;20025;-72
2021/07/02 01:47:05;;;;;;;23.27;14.50;;;;;;;14.30;95.53;101066.81;5018236;28;20036;-72
2021/07/02 01:49:30;;;;;;;26.70;15.02;;;;;;;14.31;95.71;101071.16;5018160;28;20049;-72
2021/07/02 01:51:56;;;;;;;22.27;14.38;;;;;;;14.40;95.39;101070.06;5017293;28;20033;-72
2021/07/02 01:54:21;;;;;;;26.60;15.63;;;;;;;14.30;95.60;101072.09;5035326;28;20021;-72
2021/07/02 01:56:48;;;;;;;24.48;16.00;;;;;;;14.24;95.25;101069.59;5017409;28;20053;-72
2021/07/02 01:59:20;;;;;;;29.10;16.27;;;;;;;14.30;95.40;101061.56;5018047;28;20090;-72
2021/07/02 02:01:47;;;;;;;21.95;14.18;;;;;;;14.26;95.08;101069.56;5016962;28;20025;-72
2021/07/02 02:04:12;;;;;;;25.83;15.60;;;;;;;14.31;95.14;101073.78;5018116;28;20114;-72
2021/07/02 02:06:38;;;;;;;23.63;14.57;;;;;;;14.26;95.03;101074.81;5017689;28;20429;-72
2021/07/02 02:09:04;;;;;;;22.10;14.32;;;;;;;14.24;95.36;101069.59;5001251;28;20315;-72
2021/07/02 02:11:30;;;;;;;27.98;15.48;;;;;;;14.04;95.34;101075.34;5017200;28;20343;-72
2021/07/02 02:13:55;;;;;;;25.88;14.95;;;;;;;14.14;95.30;101065.50;5017507;28;20025;-72
2021/07/02 02:16:21;;;;;;;23.58;15.05;;;;;;;14.20;95.93;101065.31;5017378;28;20021;-71
2021/07/02 02:18:46;;;;;;;27.65;15.30;;;;;;;14.13;95.45;101069.03;5017218;28;20033;-72
2021/07/02 02:21:11;;;;;;;23.40;15.27;;;;;;;13.99;95.88;101067.59;5016782;28;20486;-72
2021/07/02 02:23:37;;;;;;;23.90;15.35;;;;;;;14.08;95.90;101070.88;5017023;28;20512;-72
2021/07/02 02:26:02;;;;;;;23.23;15.57;;;;;;;14.10;95.66;101079.59;5017061;28;20371;-72
2021/07/02 02:28:30;;;;;;;23.33;15.68;;;;;;;14.01;95.36;101078.06;5017100;28;20101;-72
2021/07/02 02:30:55;;;;;;;24.70;15.65;;;;;;;14.11;95.75;101076.94;5017468;28;20082;-72
2021/07/02 02:33:20;;;;;;;22.73;16.05;;;;;;;14.08;95.87;101078.75;5016762;28;20104;-72
2021/07/02 02:35:46;;;;;;;23.65;16.10;;;;;;;14.18;95.97;101077.66;5016952;28;20044;-72
2021/07/02 02:38:11;;;;;;;24.30;15.32;;;;;;;14.19;95.46;101079.34;5016761;28;20025;-72
2021/07/02 02:40:36;;;;;;;23.55;15.07;;;;;;;14.20;95.41;101078.47;5034369;28;20025;-72
2021/07/02 02:43:02;;;;;;;24.85;15.25;;;;;;;14.12;95.25;101088.28;5000031;28;20047;-72
2021/07/02 02:45:28;;;;;;;24.17;16.48;;;;;;;14.18;95.90;101088.16;5016815;28;20025;-72
2021/07/02 02:47:53;;;;;;;24.42;13.98;;;;;;;14.32;95.19;101087.81;5017006;28;20597;-72
2021/07/02 02:50:18;;;;;;;24.48;17.48;;;;;;;14.23;95.76;101086.25;5016972;28;20022;-73
2021/07/02 02:52:44;;;;;;;22.15;14.85;;;;;;;14.37;95.13;101084.16;5016755;28;20021;-73
2021/07/02 02:55:09;;;;;;;24.70;15.75;;;;;;;14.31;95.64;101094.81;5017977;28;20087;-73
2021/07/02 02:57:35;;;;;;;25.80;15.82;;;;;;;14.24;95.43;101090.63;5017609;28;20030;-72
2021/07/02 03:00:00;;;;;;;30.15;15.73;;;;;;;14.26;95.38;101088.81;5018819;28;20048;-72
2021/07/02 03:02:25;;;;;;;26.25;17.08;;;;;;;14.16;95.96;101098.69;5016278;28;20435;-72
2021/07/02 03:04:53;;;;;;;28.73;18.02;;;;;;;14.00;95.81;101097.34;5016739;28;20032;-73
2021/07/02 03:07:19;;;;;;;27.02;16.27;;;;;;;14.13;95.23;101092.66;5017390;28;20053;-72
2021/07/02 03:09:44;;;;;;;23.30;15.43;;;;;;;14.15;95.26;101102.22;5016380;28;20060;-72
2021/07/02 03:12:09;;;;;;;27.88;16.48;;;;;;;14.10;95.38;101100.63;5032463;28;20431;-72
2021/07/02 03:14:37;;;;;;;26.58;15.93;;;;;;;14.12;95.68;101098.81;5000169;28;20264;-72
2021/07/02 03:17:03;;;;;;;27.45;16.52;;;;;;;14.07;96.25;101098.03;5033810;28;20033;-72
2021/07/02 03:19:28;;;;;;;26.50;16.20;;;;;;;13.95;95.91;101099.22;5016619;28;20077;-72
2021/07/02 03:21:53;;;;;;;27.10;16.88;;;;;;;14.07;95.84;101098.94;5032428;28;20044;-72
2021/07/02 03:24:19;;;;;;;25.30;16.08;;;;;;;14.00;95.82;101094.69;5017576;28;20021;-73
2021/07/02 03:26:45;;;;;;;29.92;17.08;;;;;;;13.88;95.67;101098.50;5016344;28;20025;-72
2021/07/02 03:29:10;;;;;;;30.88;17.95;;;;;;;13.76;96.42;101104.03;5016632;28;20033;-72
2021/07/02 03:31:36;;;;;;;28.95;18.27;;;;;;;13.84;96.39;101102.94;4999272;28;20025;-72
2021/07/02 03:34:01;;;;;;;29.05;18.02;;;;;;;13.83;96.45;101109.09;5016536;28;20331;-73
2021/07/02 03:36:27;;;;;;;34.03;19.55;;;;;;;13.77;95.96;101108.38;5016233;28;20064;-73
2021/07/02 03:38:52;;;;;;;26.88;17.17;;;;;;;13.79;96.14;101111.84;5018491;28;20041;-73
2021/07/02 03:41:17;;;;;;;28.17;16.92;;;;;;;13.81;96.21;101116.16;5020321;28;20033;-73
2021/07/02 03:43:43;;;;;;;32.00;18.27;;;;;;;13.94;96.35;101111.47;5020283;28;20397;-74
2021/07/02 03:46:08;;;;;;;27.83;16.80;;;;;;;13.93;96.15;101115.00;5020548;28;20017;-73
2021/07/02 03:48:33;;;;;;;32.80;16.95;;;;;;;14.04;95.74;101120.00;5020694;28;20103;-73
2021/07/02 03:50:59;;;;;;;25.23;16.10;;;;;;;13.97;95.44;101132.41;5020581;28;20481;-72
2021/07/02 03:53:24;;;;;;;26.38;16.85;;;;;;;14.10;95.32;101119.00;5020487;28;20029;-73
2021/07/02 03:55:50;;;;;;;25.17;16.15;;;;;;;14.18;94.86;101124.94;5020605;28;20120;-73
2021/07/02 03:58:15;;;;;;;31.33;17.08;;;;;;;14.10;94.46;101126.88;5020616;28;20075;-74
2021/07/02 04:00:40;;;;;;;25.90;16.02;;;;;;;14.24;94.99;101131.81;5020269;28;20029;-74
2021/07/02 04:03:06;;;;;;;32.25;16.63;;;;;;;14.24;94.43;101132.66;5019608;28;20311;-73
2021/07/02 04:05:32;;;;;;;25.83;15.95;;;;;;;14.21;93.93;101138.00;5020080;28;20037;-72
2021/07/02 04:07:57;;;;;;;26.55;16.00;;;;;;;14.11;95.11;101139.97;5020161;28;20029;-72
2021/07/02 04:10:22;;;;;;;22.50;15.80;;;;;;;14.19;94.79;101142.41;5019789;28;20561;-75
2021/07/02 04:12:48;;;;;;;27.92;16.88;;;;;;;14.09;94.57;101138.28;5003176;28;20033;-73
2021/07/02 04:15:14;;;;;;;25.95;16.35;;;;;;;14.15;95.40;101151.25;5019667;28;20065;-73
2021/07/02 04:17:41;;;;;;;23.85;17.08;;;;;;;14.12;95.21;101151.34;5019714;28;20029;-73
2021/07/02 04:20:09;;;;;;;24.50;15.75;;;;;;;14.23;94.44;101154.56;5019719;28;20044;-72
2021/07/02 04:22:36;;;;;;;22.88;16.08;;;;;;;14.11;93.55;101154.84;5019013;28;20075;-72
2021/07/02 04:25:03;;;;;;;20.27;15.00;;;;;;;14.22;93.36;101157.22;5019543;28;20381;-72
2021/07/02 04:27:29;;;;;;;24.08;15.05;;;;;;;14.30;92.99;101148.28;5037010;28;20072;-72
2021/07/02 04:29:54;;;;;;;22.17;14.82;;;;;;;14.39;92.45;101162.09;5019558;28;20029;-72
2021/07/02 04:32:19;;;;;;;21.08;14.32;;;;;;;14.47;92.41;101155.72;5018910;28;20071;-74
2021/07/02 04:34:44;;;;;;;20.33;14.13;;;;;;;14.51;92.58;101161.78;5019191;28;20048;-73
2021/07/02 04:37:12;;;;;;;27.70;15.93;;;;;;;14.45;93.44;101154.03;5019499;28;20036;-73
2021/07/02 04:39:38;;;;;;;18.38;14.88;;;;;;;14.47;93.54;101162.78;5019454;28;20021;-73
2021/07/02 04:42:04;;;;;;;21.67;14.35;;;;;;;14.60;92.68;101158.94;5018722;28;20084;-74
2021/07/02 04:44:30;;;;;;;20.73;14.38;;;;;;;14.46;92.20;101161.03;5019264;28;20379;-72
2021/07/02 04:46:55;;;;;;;25.70;14.38;;;;;;;14.61;92.31;101160.63;5019068;28;20024;-73
2021/07/02 04:49:20;;;;;;;19.15;14.73;;;;;;;14.57;92.61;101169.50;5035504;28;20060;-73
2021/07/02 04:51:47;;;;;;;22.80;14.18;;;;;;;14.62;92.45;101167.63;5018364;28;20100;-73
2021/07/02 04:54:13;;;;;;;18.23;14.70;;;;;;;14.60;92.93;101165.94;5019603;28;20095;-74
2021/07/02 04:56:38;;;;;;;21.80;13.77;;;;;;;14.63;92.24;101169.41;5036294;28;20030;-73
2021/07/02 04:59:03;;;;;;;28.95;15.65;;;;;;;14.57;92.96;101173.91;5018980;28;20079;-73
2021/07/02 05:01:29;;;;;;;20.55;14.43;;;;;;;14.63;91.69;101172.03;5018156;28;20083;-72
2021/07/02 05:03:54;;;;;;;27.05;15.05;;;;;;;14.63;92.00;101174.66;5036212;28;20029;-72
2021/07/02 05:06:19;;;;;;;24.58;15.55;;;;;;;14.57;91.88;101173.91;5018573;28;20018;-72
2021/07/02 05:08:45;;;;;;;23.13;15.82;;;;;;;14.40;92.55;101169.94;5036149;28;20029;-72
2021/07/02 05:11:11;;;;;;;22.55;15.50;;;;;;;14.71;92.26;101171.81;5017995;28;20022;-72
2021/07/02 05:13:38;;;;;;;22.42;14.32;;;;;;;14.82;92.05;101180.31;5018491;28;20033;-72
2021/07/02 05:16:04;;;;;;;24.55;14.90;;;;;;;14.84;92.45;101177.63;5036054;28;20048;-73
2021/07/02 05:18:30;;;;;;;20.98;14.30;;;;;;;14.98;91.23;101178.13;5018412;28;20033;-72
2021/07/02 05:20:55;;;;;;;18.00;14.77;;;;;;;15.15;90.94;101176.81;5034931;28;20037;-73
2021/07/02 05:23:22;;;;;;;20.75;14.23;;;;;;;15.03;90.60;101168.31;5018033;28;20372;-73
2021/07/02 05:25:48;;;;;;;24.30;14.93;;;;;;;14.93;89.95;101180.03;5018780;28;20030;-73
2021/07/02 05:28:13;;;;;;;25.40;14.23;;;;;;;15.03;89.99;101178.84;5018395;28;20407;-75
2021/07/02 05:30:39;;;;;;;23.13;15.52;;;;;;;15.04;91.02;101177.94;5018480;28;20024;-73
2021/07/02 05:33:04;;;;;;;31.02;14.60;;;;;;;15.33;90.71;101178.91;5017301;28;20049;-74
2021/07/02 05:35:30;;;;;;;22.83;15.13;;;;;;;15.19;89.90;101174.03;5018001;28;20036;-73
2021/07/02 05:37:55;;;;;;;21.30;14.38;;;;;;;14.92;90.92;101180.91;5018057;28;20366;-73
2021/07/02 05:40:20;;;;;;;19.90;13.40;;;;;;;15.17;90.30;101180.25;5035434;28;20371;-74
2021/07/02 05:42:46;;;;;;;19.77;14.20;;;;;;;15.06;89.48;101179.69;5017320;28;20096;-74
2021/07/02 05:45:12;;;;;;;18.35;13.90;;;;;;;15.20;89.66;101177.53;5017930;28;20052;-73
2021/07/02 05:47:49;;;;;;;24.65;14.23;;;;;;;15.32;88.31;101178.97;5001778;28;20025;-73
2021/07/02 05:50:14;;;;;;;23.67;15.05;;;;;;;15.04;90.11;101179.72;5018811;28;20087;-73
2021/07/02 05:52:40;;;;;;;20.10;12.90;;;;;;;15.20;90.33;101182.78;5016959;28;20029;-73
2021/07/02 05:55:06;;;;;;;25.63;15.95;;;;;;;15.23;89.68;101190.63;5017843;28;20083;-73
2021/07/02 05:57:31;;;;;;;23.70;14.65;;;;;;;15.43;89.29;101189.19;5017870;28;20375;-73
2021/07/02 05:59:56;;;;;;;24.88;15.45;;;;;;;15.17;89.25;101198.66;5017729;28;20049;-73
2021/07/02 06:02:22;;;;;;;19.00;14.40;;;;;;;15.04;89.97;101191.09;5016647;28;20415;-73
2021/07/02 06:04:47;;;;;;;19.05;13.93;;;;;;;14.98;89.07;101200.94;5017381;28;20414;-73
2021/07/02 06:07:12;;;;;;;23.83;14.32;;;;;;;14.90;90.20;101198.50;5017759;28;20108;-74
2021/07/02 06:09:38;;;;;;;20.45;13.57;;;;;;;14.98;89.96;101201.81;5017340;28;20026;-74
2021/07/02 06:12:04;;;;;;;22.38;13.27;;;;;;;14.88;88.73;101203.78;5017246;28;20056;-72
2021/07/02 06:14:30;;;;;;;23.67;13.32;;;;;;;14.90;89.91;101198.50;5017622;28;20021;-72
2021/07/02 06:16:56;;;;;;;23.08;14.50;;;;;;;14.75;89.73;101204.16;5001027;28;20018;-72
2021/07/02 06:19:21;;;;;;;18.33;13.68;;;;;;;14.87;90.71;101198.56;5017376;28;20095;-73
2021/07/02 06:21:47;;;;;;;24.27;14.48;;;;;;;14.95;90.34;101190.50;5016456;28;20025;-72
2021/07/02 06:24:12;;;;;;;24.40;14.73;;;;;;;14.90;88.93;101206.38;5017489;28;20083;-73
2021/07/02 06:26:37;;;;;;;21.35;13.73;;;;;;;15.12;89.65;101201.44;5017094;28;20017;-73
2021/07/02 06:29:03;;;;;;;16.88;13.68;;;;;;;15.10;89.51;101205.00;5017178;28;20087;-73
2021/07/02 06:31:28;;;;;;;21.80;14.25;;;;;;;15.24;88.19;101202.84;5016546;28;20021;-72
2021/07/02 06:33:53;;;;;;;18.92;12.85;;;;;;;15.27;88.29;101202.78;5016776;28;20057;-73
2021/07/02 06:36:19;;;;;;;21.27;12.82;;;;;;;15.37;88.62;101201.59;5016858;28;20028;-73
2021/07/02 06:38:47;;;;;;;18.95;13.18;;;;;;;15.29;87.81;101197.47;5000852;28;20069;-73
2021/07/02 06:41:14;;;;;;;19.23;13.43;;;;;;;15.24;88.05;101202.84;5014379;28;20021;-73
2021/07/02 06:43:40;;;;;;;20.92;12.25;;;;;;;16.38;83.75;101204.75;5006426;28;20033;-73
2021/07/02 06:46:05;;;;;;;16.80;12.52;;;;;;;16.53;83.32;101202.53;5001108;28;20029;-72
2021/07/02 06:48:30;;;;;;;17.23;11.10;;;;;;;16.61;81.01;101191.75;5016272;28;20026;-72
2021/07/02 06:50:56;;;;;;;16.05;11.50;;;;;;;16.77;81.03;101198.22;5015428;28;20029;-72
2021/07/02 06:53:23;;;;;;;15.15;11.32;;;;;;;16.46;83.41;101201.03;5003096;28;20022;-72
2021/07/02 06:55:48;;;;;;;14.30;10.57;;;;;;;17.62;78.48;101192.56;5009430;28;20033;-72
2021/07/02 06:58:13;;;;;;;16.30;11.43;;;;;;;17.96;76.17;101198.38;5012351;28;20083;-72
2021/07/02 07:00:39;;;;;;;19.25;11.48;;;;;;;17.47;77.20;101201.94;4998707;28;20040;-73
2021/07/02 07:03:08;;;;;;;13.57;11.65;;;;;;;16.85;80.39;101203.22;5005746;28;20040;-73
2021/07/02 07:05:34;;;;;;;15.60;11.48;;;;;;;17.54;76.57;101199.91;5031017;28;20490;-73
2021/07/02 07:08:01;;;;;;;12.70;10.63;;;;;;;17.65;76.80;101197.72;5015294;28;20020;-75
2021/07/02 07:10:27;;;;;;;17.70;11.57;;;;;;;17.79;77.16;101197.19;5030497;28;20415;-73
2021/07/02 07:12:52;;;;;;;14.65;11.80;;;;;;;17.24;80.35;101197.47;4981705;28;20034;-73
2021/07/02 07:15:19;;;;;;;15.90;11.90;;;;;;;16.86;81.14;101194.38;5001000;28;20032;-73
2021/07/02 07:17:44;;;;;;;15.73;12.63;;;;;;;16.80;82.61;101199.91;4987749;28;20033;-73
2021/07/02 07:20:12;;;;;;;17.65;13.43;;;;;;;17.05;80.10;101198.13;4999486;28;20367;-73
2021/07/02 07:22:38;;;;;;;17.98;12.13;;;;;;;17.12;80.43;101197.94;5023263;28;20036;-73
2021/07/02 07:25:03;;;;;;;13.27;11.57;;;;;;;17.23;79.54;101198.41;5005822;28;20033;-73
2021/07/02 07:27:29;;;;;;;13.23;10.95;;;;;;;17.89;77.81;101197.72;5024153;28;20021;-73
2021/07/02 07:29:54;;;;;;;10.77;9.65;;;;;;;18.85;73.15;101199.16;5015001;28;20033;-74
2021/07/02 07:32:20;;;;;;;13.55;10.25;;;;;;;20.00;68.30;101195.78;5004316;28;20022;-74
2021/07/02 07:34:53;;;;;;;11.75;10.52;;;;;;;19.08;71.53;101196.38;5014567;28;20033;-74
2021/07/02 07:37:20;;;;;;;12.65;10.88;;;;;;;18.57;72.36;101201.19;5016537;28;20109;-75
2021/07/02 07:39:46;;;;;;;15.77;10.38;;;;;;;18.62;72.12;101198.31;5015920;28;20064;-74
2021/07/02 07:42:12;;;;;;;12.68;11.18;;;;;;;17.93;75.35;101194.06;5033831;28;20125;-73
2021/07/02 07:44:37;;;;;;;13.18;10.98;;;;;;;17.58;76.81;101204.16;5015833;28;20378;-73
2021/07/02 07:47:02;;;;;;;11.77;10.43;;;;;;;17.53;77.96;101198.19;5032296;28;20021;-73
2021/07/02 07:49:28;;;;;;;12.93;10.48;;;;;;;17.91;77.02;101195.88;5012587;28;20045;-75
2021/07/02 07:52:00;;;;;;;16.20;10.30;;;;;;;17.56;78.11;101200.72;5014347;28;20398;-73
2021/07/02 07:54:27;;;;;;;14.70;10.63;;;;;;;17.76;77.76;101196.47;5015628;28;20025;-73
2021/07/02 07:56:53;;;;;;;14.10;10.55;;;;;;;17.52;77.23;101188.53;5032741;28;20017;-73
2021/07/02 07:59:28;;;;;;;16.27;10.98;;;;;;;18.24;75.43;101192.84;5010500;28;20081;-73
2021/07/02 08:01:53;;;;;;;11.43;9.60;;;;;;;19.11;71.15;101194.53;5015548;28;20444;-73
2021/07/02 08:04:19;;;;;;;9.07;8.18;;;;;;;21.38;63.75;101189.72;5014134;28;20555;-73
2021/07/02 08:06:45;;;;;;;10.88;8.50;;;;;;;21.49;63.16;101199.78;5027014;28;20022;-73
2021/07/02 08:09:11;;;;;;;10.02;7.95;;;;;;;22.86;58.42;101195.66;5013392;28;20029;-73
2021/07/02 08:11:37;;;;;;;12.98;8.45;;;;;;;21.17;62.54;101198.84;4997771;28;20049;-73
2021/07/02 08:14:04;;;;;;;9.63;8.32;;;;;;;20.54;64.77;101194.94;4991114;28;20381;-73
2021/07/02 08:16:29;;;;;;;11.98;8.85;;;;;;;20.43;64.66;101198.97;5029455;28;20037;-73
2021/07/02 08:18:55;;;;;;;15.20;9.82;;;;;;;19.00;69.80;101213.53;5030718;28;20329;-73
2021/07/02 08:21:20;;;;;;;10.32;9.32;;;;;;;18.48;71.20;101213.94;5026677;28;20057;-73
2021/07/02 08:23:45;;;;;;;11.32;9.50;;;;;;;18.52;72.99;101212.88;5015122;28;20026;-73
2021/07/02 08:26:14;;;;;;;12.43;9.13;;;;;;;18.58;73.17;101223.19;5038256;28;20319;-74
2021/07/02 08:31:23;;;;;;;14.02;10.68;;;;;;;17.94;74.09;101211.63;5026125;28;20107;-74
2021/07/02 08:33:48;;;;;;;15.57;11.32;;;;;;;17.94;75.14;101219.56;5017608;28;20359;-73
2021/07/02 08:36:14;;;;;;;12.60;10.73;;;;;;;17.83;75.36;101219.09;4997562;28;20108;-73
2021/07/02 08:38:39;;;;;;;14.32;11.55;;;;;;;17.81;75.55;101220.94;5009393;28;20025;-74
2021/07/02 08:41:07;;;;;;;15.63;11.10;;;;;;;18.13;75.02;101218.84;5004504;28;20088;-74
2021/07/02 08:43:32;;;;;;;19.00;13.18;;;;;;;18.27;76.76;101216.53;5014735;28;20101;-75
2021/07/02 08:45:58;;;;;;;15.93;11.13;;;;;;;18.60;73.28;101218.72;5002274;28;20124;-74
2021/07/02 08:48:23;;;;;;;18.67;13.35;;;;;;;18.60;72.89;101224.00;5010630;28;20083;-74
2021/07/02 08:50:52;;;;;;;15.18;10.85;;;;;;;18.94;71.60;101227.91;5018844;28;20039;-75
2021/07/02 08:53:18;;;;;;;24.20;11.30;;;;;;;18.95;71.83;101229.63;5018080;28;20056;-74
2021/07/02 08:55:43;;;;;;;15.27;10.88;;;;;;;17.94;74.68;101231.91;5003736;28;20056;-74
2021/07/02 08:58:13;;;;;;;15.02;11.73;;;;;;;17.98;74.44;101231.72;5010502;28;20080;-73
2021/07/02 09:00:39;;;;;;;16.15;11.55;;;;;;;18.23;72.86;101229.00;5014782;28;20022;-73
2021/07/02 09:03:31;;;;;;;16.45;11.13;;;;;;;18.78;71.57;101224.16;5026310;28;20041;-73
2021/07/02 09:06:15;;;;;;;18.45;11.40;;;;;;;18.82;71.38;101231.91;5032950;28;20025;-74
2021/07/02 09:08:57;;;;;;;13.68;10.85;;;;;;;18.63;71.91;101229.16;5002383;28;20024;-74
2021/07/02 09:11:24;;;;;;;12.48;10.27;;;;;;;18.79;70.86;101232.03;5035680;28;20334;-74
2021/07/02 09:13:50;;;;;;;18.55;11.35;;;;;;;18.97;70.38;101225.13;5013393;28;20363;-74
2021/07/02 09:16:27;;;;;;;14.52;10.65;;;;;;;19.54;69.29;101224.41;5017598;28;20059;-74
2021/07/02 09:18:52;;;;;;;13.43;9.90;;;;;;;19.18;71.36;101222.47;5018015;28;20017;-74
2021/07/02 09:21:28;;;;;;;14.15;9.07;;;;;;;19.35;68.67;101225.22;5017458;28;20486;-73
2021/07/02 09:23:57;;;;;;;19.23;8.90;;;;;;;19.66;67.51;101230.91;5035865;28;20056;-74
2021/07/02 09:26:43;;;;;;;12.07;9.57;;;;;;;19.68;66.02;101224.63;5018512;28;20041;-74
2021/07/02 09:29:21;;;;;;;12.10;9.20;;;;;;;19.69;68.11;101221.06;5018945;28;20442;-74
2021/07/02 09:32:04;;;;;;;10.55;8.98;;;;;;;19.70;68.52;101221.91;5034680;28;20026;-75
2021/07/02 09:34:50;;;;;;;10.15;9.18;;;;;;;19.86;67.79;101222.09;5017764;28;20140;-74
2021/07/02 09:37:52;;;;;;;12.02;8.85;;;;;;;19.33;67.63;101229.72;5015717;28;20056;-73
2021/07/02 09:40:21;;;;;;;9.15;8.35;;;;;;;19.66;66.69;101223.84;5020977;28;20028;-75
2021/07/02 09:42:59;;;;;;;10.13;8.55;;;;;;;19.59;66.91;101233.88;5034849;28;20027;-74
2021/07/02 09:45:25;;;;;;;9.13;8.27;;;;;;;19.74;67.00;101231.41;5020035;28;20032;-74
2021/07/02 09:47:51;;;;;;;13.40;9.43;;;;;;;19.84;67.20;101240.72;5017534;28;20024;-74
2021/07/02 09:50:27;;;;;;;11.30;8.73;;;;;;;19.59;67.64;101233.88;5017699;28;20033;-74
2021/07/02 09:52:54;;;;;;;8.18;7.38;;;;;;;19.48;68.60;101235.28;5017620;28;20044;-74
2021/07/02 09:55:31;;;;;;;8.07;7.32;;;;;;;19.40;67.86;101238.25;5032568;28;20022;-74
2021/07/02 09:58:07;;;;;;;11.02;7.88;;;;;;;19.64;66.67;101241.59;5015381;28;20026;-74
2021/07/02 10:00:34;;;;;;;8.70;6.38;;;;;;;20.10;65.04;101236.81;5017394;28;20014;-74
2021/07/02 10:03:00;;;;;;;7.97;7.25;;;;;;;20.05;63.24;101236.19;5031937;28;20334;-75
2021/07/02 10:05:26;;;;;;;9.02;6.78;;;;;;;20.18;64.44;101239.13;5016857;28;20021;-75
2021/07/02 10:08:00;;;;;;;8.95;7.03;;;;;;;20.04;63.87;101234.50;5001185;28;20033;-74
2021/07/02 10:10:26;;;;;;;9.63;7.63;;;;;;;20.14;64.54;101240.19;5017496;28;20083;-74
2021/07/02 10:12:53;;;;;;;8.75;7.35;;;;;;;19.73;64.73;101243.81;5016857;28;20331;-75
2021/07/02 10:15:19;;;;;;;7.70;6.78;;;;;;;20.08;63.06;101249.31;5013527;28;20048;-75
2021/07/02 10:17:44;;;;;;;6.40;5.90;;;;;;;20.55;62.15;101239.13;5014580;28;20018;-75
2021/07/02 10:20:11;;;;;;;7.38;6.30;;;;;;;19.73;64.49;101249.13;5030054;28;20026;-75
2021/07/02 10:22:37;;;;;;;7.10;6.40;;;;;;;19.62;65.77;101254.06;5005911;28;20036;-74
2021/07/02 10:25:02;;;;;;;7.55;6.15;;;;;;;19.75;65.69;101244.59;5014860;28;20032;-75
2021/07/02 10:27:29;;;;;;;6.57;5.97;;;;;;;20.38;63.85;101247.91;4998013;28;20018;-74
2021/07/02 10:29:54;;;;;;;6.03;5.45;;;;;;;20.24;60.75;101245.91;5030683;28;20080;-75
2021/07/02 10:32:20;;;;;;;7.35;6.65;;;;;;;20.15;62.39;101246.34;5013029;28;20362;-75
2021/07/02 10:34:46;;;;;;;6.65;5.93;;;;;;;20.02;62.98;101256.69;5008303;28;20025;-75
2021/07/02 10:37:11;;;;;;;6.80;6.15;;;;;;;19.79;65.01;101252.44;4997222;28;20060;-75
2021/07/02 10:39:38;;;;;;;6.05;5.20;;;;;;;19.95;65.12;101252.59;5009495;28;20368;-74
2021/07/02 10:42:08;;;;;;;6.45;5.45;;;;;;;20.54;63.37;101246.22;5008091;28;20363;-74
2021/07/02 10:44:54;;;;;;;5.75;5.30;;;;;;;20.30;64.33;101261.56;5023799;28;20056;-74
2021/07/02 10:47:21;;;;;;;6.57;5.80;;;;;;;19.66;64.74;101266.25;5022345;28;20049;-74
2021/07/02 10:49:46;;;;;;;6.63;5.75;;;;;;;19.71;65.06;101261.56;5013972;28;20104;-75
2021/07/02 10:52:21;;;;;;;6.15;5.65;;;;;;;19.56;65.38;101259.63;5031043;28;20387;-75
2021/07/02 10:54:50;;;;;;;6.38;5.78;;;;;;;19.81;65.11;101269.13;5015298;28;20443;-74
2021/07/02 10:57:18;;;;;;;8.73;6.35;;;;;;;19.66;65.82;101265.38;5013434;28;20022;-75
2021/07/02 10:59:46;;;;;;;10.13;7.00;;;;;;;20.53;63.27;101251.59;5001162;28;20125;-74
2021/07/02 11:02:25;;;;;;;10.32;6.43;;;;;;;20.76;62.29;101248.72;5010585;28;20345;-74
2021/07/02 11:04:55;;;;;;;6.13;5.53;;;;;;;21.30;60.23;101245.06;5015573;28;20036;-77
2021/07/02 11:07:41;;;;;;;6.72;5.22;;;;;;;21.62;59.37;101247.84;4999247;28;20331;-76
2021/07/02 11:10:07;;;;;;;9.13;5.45;;;;;;;21.07;59.97;101251.59;4991376;28;20049;-72
2021/07/02 11:12:57;;;;;;;5.93;5.43;;;;;;;21.78;56.42;101232.75;5006263;28;20415;-72